High Point, NC

6:16 PM EDT on August 24, 2016 (GMT -0400)
Oak Hollow Marina | | Change Station

Elev 850 ft 36.01 °N, 80.00 °W | Updated 15 minutes ago

Mostly Cloudy
Mostly Cloudy
83.1 °F
Feels Like 87 °F
N
2.0
Wind Variable Wind from ESE
Gusts 4.0 mph

Today
High -- | Low -- °F
--% Chance of Precip.
Yesterday
High -- | Low -- °F
Precip. -- in
Pressure 30.17 in
Visibility 10.0 miles
Clouds Few 4000 ft
Scattered Clouds 7000 ft
Mostly Cloudy 25000 ft
Heat Index 87 °F
Dew Point 69 °F
Humidity 63%
Rainfall 0.00 in
Snow Depth Not available.
6:45 AM 7:57 PM
Waning Gibbous, 53% visible
METAR KGSO 242154Z 14007KT 10SM FEW040 SCT070 BKN250 28/18 A3020 RMK AO2 SLP217 T02830183
Pressure 30.17 in
Visibility 10.0 miles
Clouds Few 4000 ft
Scattered Clouds 7000 ft
Mostly Cloudy 25000 ft
Heat Index 87 °F
Dew Point 69 °F
Humidity 63%
Rainfall 0.00 in
Snow Depth Not available.
6:45 AM 7:57 PM
Waning Gibbous, 53% visible
METAR KGSO 242154Z 14007KT 10SM FEW040 SCT070 BKN250 28/18 A3020 RMK AO2 SLP217 T02830183
A tropical disturbance we've monitored since last week, may have a dangerous future in store for the southeast U.S. and Gulf coasts this weekend into next week. The National Weather Service has issued a flash flood watch for Puerto Rico and the U.S. Virgin Islands. Rainfall totals of 2-4 inches (locally higher) are expected through Wednesday night in those areas.

The National Hurricane Center says this system has a medium to high chance of development into a tropical depression or tropical storm over the next 2 to 5 days. A tight consensus of our guidance suggests the disturbance should continue in a general west or west-northwest trajectory the next several days.

10-Day Weather Forecast

Almanac

Astronomy

Aug. 24, 2016 Rise Set
Actual Time
Civil Twilight
Nautical Twilight
Astronomical Twilight
Moon
Length of Visible Light
Length of Day
Tomorrow will be .
, % of the Moon is Illuminated

Today's Extremes

State Highs State Lows

Community

WunderPhotos

Upload Photos

1,934,725 photos uploaded!

WunderBlog® & News

Nearby

Air Quality

  Air Quality AQ Index Pollutant
Not available.

Snow Depth

Station Depth Elevation

Earthquake Activity

City Distance Mag. Time & Date
Minimum magnitude displayed is 2.5.

Coastal Water Temperatures

Place Temperature

Stations

Nearby Weather Stations

Station Location Temp. Windchill Dew Point Humidity Wind Precip. Elev Updated Type
                   

Watches & Warnings

There are currently no watches in effect.